sensor_id;sensor_type;location;lat;lon;timestamp;P1;durP1;ratioP1;P2;durP2;ratioP2
5414;SDS011;2730;51.512;7.504;2023-07-16T00:00:32;5.93;;;2.10;;
5414;SDS011;2730;51.512;7.504;2023-07-16T00:02:59;2.40;;;1.77;;
5414;SDS011;2730;51.512;7.504;2023-07-16T00:05:26;2.57;;;1.90;;
5414;SDS011;2730;51.512;7.504;2023-07-16T00:07:52;5.90;;;2.23;;
5414;SDS011;2730;51.512;7.504;2023-07-16T00:10:21;5.80;;;1.70;;
5414;SDS011;2730;51.512;7.504;2023-07-16T00:12:47;7.67;;;2.03;;
5414;SDS011;2730;51.512;7.504;2023-07-16T00:15:14;4.10;;;2.23;;
5414;SDS011;2730;51.512;7.504;2023-07-16T00:17:41;2.63;;;1.67;;
5414;SDS011;2730;51.512;7.504;2023-07-16T00:20:08;3.63;;;1.97;;
5414;SDS011;2730;51.512;7.504;2023-07-16T00:22:35;3.57;;;1.83;;
5414;SDS011;2730;51.512;7.504;2023-07-16T00:25:04;2.23;;;2.03;;
5414;SDS011;2730;51.512;7.504;2023-07-16T00:27:33;2.13;;;2.00;;
5414;SDS011;2730;51.512;7.504;2023-07-16T00:29:59;2.33;;;1.97;;
5414;SDS011;2730;51.512;7.504;2023-07-16T00:32:26;2.17;;;1.93;;
5414;SDS011;2730;51.512;7.504;2023-07-16T00:34:53;2.13;;;1.93;;
5414;SDS011;2730;51.512;7.504;2023-07-16T00:37:20;3.13;;;1.60;;
5414;SDS011;2730;51.512;7.504;2023-07-16T00:39:46;1.93;;;1.83;;
5414;SDS011;2730;51.512;7.504;2023-07-16T00:42:13;3.63;;;2.10;;
5414;SDS011;2730;51.512;7.504;2023-07-16T00:44:41;3.87;;;1.80;;
5414;SDS011;2730;51.512;7.504;2023-07-16T00:47:08;2.50;;;1.57;;
5414;SDS011;2730;51.512;7.504;2023-07-16T00:49:35;3.37;;;1.73;;
5414;SDS011;2730;51.512;7.504;2023-07-16T00:52:03;6.00;;;1.87;;
5414;SDS011;2730;51.512;7.504;2023-07-16T00:54:30;5.03;;;1.90;;
5414;SDS011;2730;51.512;7.504;2023-07-16T00:56:58;1.97;;;1.87;;
5414;SDS011;2730;51.512;7.504;2023-07-16T00:59:24;2.70;;;1.80;;
5414;SDS011;2730;51.512;7.504;2023-07-16T01:01:53;4.80;;;1.90;;
5414;SDS011;2730;51.512;7.504;2023-07-16T01:04:19;5.73;;;1.90;;
5414;SDS011;2730;51.512;7.504;2023-07-16T01:06:47;2.00;;;1.90;;
5414;SDS011;2730;51.512;7.504;2023-07-16T01:09:18;1.97;;;1.77;;
5414;SDS011;2730;51.512;7.504;2023-07-16T01:11:47;3.27;;;1.90;;
5414;SDS011;2730;51.512;7.504;2023-07-16T01:14:16;2.70;;;1.67;;
5414;SDS011;2730;51.512;7.504;2023-07-16T01:16:43;7.50;;;2.07;;
5414;SDS011;2730;51.512;7.504;2023-07-16T01:19:12;4.90;;;1.40;;
5414;SDS011;2730;51.512;7.504;2023-07-16T01:21:40;3.20;;;2.10;;
5414;SDS011;2730;51.512;7.504;2023-07-16T01:24:28;2.83;;;1.63;;
5414;SDS011;2730;51.512;7.504;2023-07-16T01:27:30;4.50;;;2.10;;
5414;SDS011;2730;51.512;7.504;2023-07-16T01:30:11;11.53;;;2.10;;
5414;SDS011;2730;51.512;7.504;2023-07-16T01:32:41;7.10;;;1.90;;
5414;SDS011;2730;51.512;7.504;2023-07-16T01:35:08;3.03;;;2.20;;
5414;SDS011;2730;51.512;7.504;2023-07-16T01:37:36;3.63;;;1.87;;
5414;SDS011;2730;51.512;7.504;2023-07-16T01:40:03;5.13;;;1.70;;
5414;SDS011;2730;51.512;7.504;2023-07-16T01:42:33;4.03;;;2.33;;
5414;SDS011;2730;51.512;7.504;2023-07-16T01:45:00;2.20;;;1.83;;
5414;SDS011;2730;51.512;7.504;2023-07-16T01:47:30;2.23;;;1.60;;
5414;SDS011;2730;51.512;7.504;2023-07-16T01:50:06;3.73;;;2.20;;
5414;SDS011;2730;51.512;7.504;2023-07-16T01:52:34;1.93;;;1.70;;
5414;SDS011;2730;51.512;7.504;2023-07-16T01:55:00;2.30;;;1.83;;
5414;SDS011;2730;51.512;7.504;2023-07-16T01:57:27;2.40;;;2.10;;
5414;SDS011;2730;51.512;7.504;2023-07-16T01:59:54;1.80;;;1.70;;
5414;SDS011;2730;51.512;7.504;2023-07-16T02:02:20;2.00;;;1.83;;
5414;SDS011;2730;51.512;7.504;2023-07-16T02:04:49;2.03;;;1.93;;
5414;SDS011;2730;51.512;7.504;2023-07-16T02:07:15;2.03;;;1.90;;
5414;SDS011;2730;51.512;7.504;2023-07-16T02:09:42;3.40;;;1.63;;
5414;SDS011;2730;51.512;7.504;2023-07-16T02:12:09;6.03;;;2.13;;
5414;SDS011;2730;51.512;7.504;2023-07-16T02:14:36;2.50;;;1.90;;
5414;SDS011;2730;51.512;7.504;2023-07-16T02:17:03;4.60;;;1.83;;
5414;SDS011;2730;51.512;7.504;2023-07-16T02:19:30;5.73;;;1.80;;
5414;SDS011;2730;51.512;7.504;2023-07-16T02:21:58;2.23;;;1.53;;
5414;SDS011;2730;51.512;7.504;2023-07-16T02:24:25;4.03;;;2.47;;
5414;SDS011;2730;51.512;7.504;2023-07-16T02:26:51;2.90;;;1.60;;
5414;SDS011;2730;51.512;7.504;2023-07-16T02:29:18;2.03;;;1.33;;
5414;SDS011;2730;51.512;7.504;2023-07-16T02:31:45;5.17;;;2.13;;
5414;SDS011;2730;51.512;7.504;2023-07-16T02:34:13;5.87;;;1.77;;
5414;SDS011;2730;51.512;7.504;2023-07-16T02:36:40;4.47;;;1.40;;
5414;SDS011;2730;51.512;7.504;2023-07-16T02:39:08;4.30;;;1.73;;
5414;SDS011;2730;51.512;7.504;2023-07-16T02:41:35;3.83;;;2.00;;
5414;SDS011;2730;51.512;7.504;2023-07-16T02:44:04;3.17;;;1.67;;
5414;SDS011;2730;51.512;7.504;2023-07-16T02:46:31;2.53;;;2.33;;
5414;SDS011;2730;51.512;7.504;2023-07-16T02:48:58;2.30;;;2.10;;
5414;SDS011;2730;51.512;7.504;2023-07-16T02:51:25;2.17;;;1.97;;
5414;SDS011;2730;51.512;7.504;2023-07-16T02:53:52;4.10;;;1.97;;
5414;SDS011;2730;51.512;7.504;2023-07-16T02:56:20;4.87;;;2.00;;
5414;SDS011;2730;51.512;7.504;2023-07-16T02:58:47;2.53;;;1.80;;
5414;SDS011;2730;51.512;7.504;2023-07-16T03:01:13;6.70;;;2.37;;
5414;SDS011;2730;51.512;7.504;2023-07-16T03:03:40;5.60;;;2.40;;
5414;SDS011;2730;51.512;7.504;2023-07-16T03:06:07;4.20;;;1.97;;
5414;SDS011;2730;51.512;7.504;2023-07-16T03:08:34;2.90;;;2.03;;
5414;SDS011;2730;51.512;7.504;2023-07-16T03:11:01;2.10;;;1.80;;
5414;SDS011;2730;51.512;7.504;2023-07-16T03:13:29;7.67;;;2.13;;
5414;SDS011;2730;51.512;7.504;2023-07-16T03:15:56;8.57;;;2.63;;
5414;SDS011;2730;51.512;7.504;2023-07-16T03:18:27;6.80;;;2.63;;
5414;SDS011;2730;51.512;7.504;2023-07-16T03:20:54;2.70;;;2.00;;
5414;SDS011;2730;51.512;7.504;2023-07-16T03:23:21;5.50;;;2.47;;
5414;SDS011;2730;51.512;7.504;2023-07-16T03:25:48;6.67;;;2.47;;
5414;SDS011;2730;51.512;7.504;2023-07-16T03:28:15;6.67;;;1.87;;
5414;SDS011;2730;51.512;7.504;2023-07-16T03:30:45;2.60;;;1.77;;
5414;SDS011;2730;51.512;7.504;2023-07-16T03:33:12;4.73;;;1.83;;
5414;SDS011;2730;51.512;7.504;2023-07-16T03:35:41;2.53;;;2.30;;
5414;SDS011;2730;51.512;7.504;2023-07-16T03:38:08;4.80;;;2.20;;
5414;SDS011;2730;51.512;7.504;2023-07-16T03:40:35;1.90;;;1.67;;
5414;SDS011;2730;51.512;7.504;2023-07-16T03:43:02;3.13;;;2.13;;
5414;SDS011;2730;51.512;7.504;2023-07-16T03:45:29;4.43;;;2.00;;
5414;SDS011;2730;51.512;7.504;2023-07-16T03:47:57;2.87;;;1.63;;
5414;SDS011;2730;51.512;7.504;2023-07-16T03:50:24;5.43;;;1.93;;
5414;SDS011;2730;51.512;7.504;2023-07-16T03:52:50;2.70;;;1.60;;
5414;SDS011;2730;51.512;7.504;2023-07-16T03:55:18;2.30;;;1.40;;
5414;SDS011;2730;51.512;7.504;2023-07-16T03:57:45;9.13;;;2.27;;
5414;SDS011;2730;51.512;7.504;2023-07-16T04:00:12;2.10;;;2.00;;
5414;SDS011;2730;51.512;7.504;2023-07-16T04:02:38;9.27;;;1.60;;
5414;SDS011;2730;51.512;7.504;2023-07-16T04:05:07;5.00;;;1.80;;
5414;SDS011;2730;51.512;7.504;2023-07-16T04:07:34;3.33;;;2.03;;
5414;SDS011;2730;51.512;7.504;2023-07-16T04:10:01;3.73;;;2.30;;
5414;SDS011;2730;51.512;7.504;2023-07-16T04:12:28;5.50;;;1.87;;
5414;SDS011;2730;51.512;7.504;2023-07-16T04:14:55;2.47;;;2.03;;
5414;SDS011;2730;51.512;7.504;2023-07-16T04:17:24;6.07;;;1.73;;
5414;SDS011;2730;51.512;7.504;2023-07-16T04:19:50;4.40;;;2.40;;
5414;SDS011;2730;51.512;7.504;2023-07-16T04:22:19;2.17;;;1.90;;
5414;SDS011;2730;51.512;7.504;2023-07-16T04:24:45;6.70;;;2.57;;
5414;SDS011;2730;51.512;7.504;2023-07-16T04:27:12;5.43;;;2.20;;
5414;SDS011;2730;51.512;7.504;2023-07-16T04:29:39;4.40;;;2.17;;
5414;SDS011;2730;51.512;7.504;2023-07-16T04:32:06;9.70;;;2.20;;
5414;SDS011;2730;51.512;7.504;2023-07-16T04:34:33;5.33;;;2.10;;
5414;SDS011;2730;51.512;7.504;2023-07-16T04:37:00;8.40;;;1.90;;
5414;SDS011;2730;51.512;7.504;2023-07-16T04:39:28;4.17;;;2.00;;
5414;SDS011;2730;51.512;7.504;2023-07-16T04:41:55;9.30;;;2.40;;
5414;SDS011;2730;51.512;7.504;2023-07-16T04:44:21;5.03;;;2.30;;
5414;SDS011;2730;51.512;7.504;2023-07-16T04:46:48;2.67;;;1.70;;
5414;SDS011;2730;51.512;7.504;2023-07-16T04:49:15;3.40;;;2.63;;
5414;SDS011;2730;51.512;7.504;2023-07-16T04:51:42;4.17;;;2.50;;
5414;SDS011;2730;51.512;7.504;2023-07-16T04:54:08;8.60;;;2.03;;
5414;SDS011;2730;51.512;7.504;2023-07-16T04:56:36;4.70;;;2.13;;
5414;SDS011;2730;51.512;7.504;2023-07-16T04:59:03;3.30;;;1.80;;
5414;SDS011;2730;51.512;7.504;2023-07-16T05:01:30;7.60;;;2.37;;
5414;SDS011;2730;51.512;7.504;2023-07-16T05:03:57;2.27;;;2.13;;
5414;SDS011;2730;51.512;7.504;2023-07-16T05:06:23;2.77;;;1.80;;
5414;SDS011;2730;51.512;7.504;2023-07-16T05:08:50;6.03;;;2.20;;
5414;SDS011;2730;51.512;7.504;2023-07-16T05:11:17;4.70;;;2.50;;
5414;SDS011;2730;51.512;7.504;2023-07-16T05:13:45;5.00;;;2.00;;
5414;SDS011;2730;51.512;7.504;2023-07-16T05:16:12;8.43;;;2.13;;
5414;SDS011;2730;51.512;7.504;2023-07-16T05:18:39;4.60;;;2.10;;
5414;SDS011;2730;51.512;7.504;2023-07-16T05:21:05;10.70;;;2.60;;
5414;SDS011;2730;51.512;7.504;2023-07-16T05:23:32;4.00;;;2.60;;
5414;SDS011;2730;51.512;7.504;2023-07-16T05:25:59;6.10;;;2.30;;
5414;SDS011;2730;51.512;7.504;2023-07-16T05:28:26;5.90;;;2.57;;
5414;SDS011;2730;51.512;7.504;2023-07-16T05:31:00;2.70;;;2.03;;
5414;SDS011;2730;51.512;7.504;2023-07-16T05:33:28;5.53;;;2.33;;
5414;SDS011;2730;51.512;7.504;2023-07-16T05:35:54;7.33;;;2.30;;
5414;SDS011;2730;51.512;7.504;2023-07-16T05:38:21;5.63;;;2.60;;
5414;SDS011;2730;51.512;7.504;2023-07-16T05:40:48;6.83;;;2.70;;
5414;SDS011;2730;51.512;7.504;2023-07-16T05:43:15;6.53;;;2.53;;
5414;SDS011;2730;51.512;7.504;2023-07-16T05:45:42;7.83;;;2.50;;
5414;SDS011;2730;51.512;7.504;2023-07-16T05:48:10;7.80;;;3.00;;
5414;SDS011;2730;51.512;7.504;2023-07-16T05:50:37;2.33;;;2.13;;
5414;SDS011;2730;51.512;7.504;2023-07-16T05:53:04;8.47;;;3.20;;
5414;SDS011;2730;51.512;7.504;2023-07-16T05:55:30;11.67;;;2.70;;
5414;SDS011;2730;51.512;7.504;2023-07-16T05:57:57;4.17;;;2.90;;
5414;SDS011;2730;51.512;7.504;2023-07-16T06:00:24;5.77;;;2.27;;
5414;SDS011;2730;51.512;7.504;2023-07-16T06:02:51;4.23;;;2.70;;
5414;SDS011;2730;51.512;7.504;2023-07-16T06:05:19;5.33;;;2.70;;
5414;SDS011;2730;51.512;7.504;2023-07-16T06:07:45;4.20;;;2.53;;
5414;SDS011;2730;51.512;7.504;2023-07-16T06:10:12;3.00;;;2.30;;
5414;SDS011;2730;51.512;7.504;2023-07-16T06:12:39;3.80;;;2.17;;
5414;SDS011;2730;51.512;7.504;2023-07-16T06:15:06;12.57;;;2.77;;
5414;SDS011;2730;51.512;7.504;2023-07-16T06:17:34;4.00;;;2.80;;
5414;SDS011;2730;51.512;7.504;2023-07-16T06:20:01;2.93;;;2.60;;
5414;SDS011;2730;51.512;7.504;2023-07-16T06:22:29;9.53;;;2.40;;
5414;SDS011;2730;51.512;7.504;2023-07-16T06:24:56;6.67;;;3.50;;
5414;SDS011;2730;51.512;7.504;2023-07-16T06:27:23;6.30;;;2.70;;
5414;SDS011;2730;51.512;7.504;2023-07-16T06:29:49;4.53;;;2.83;;
5414;SDS011;2730;51.512;7.504;2023-07-16T06:32:16;5.90;;;2.67;;
5414;SDS011;2730;51.512;7.504;2023-07-16T06:34:43;7.20;;;3.63;;
5414;SDS011;2730;51.512;7.504;2023-07-16T06:37:10;4.30;;;2.70;;
5414;SDS011;2730;51.512;7.504;2023-07-16T06:39:38;4.00;;;3.23;;
5414;SDS011;2730;51.512;7.504;2023-07-16T06:42:05;5.17;;;3.07;;
5414;SDS011;2730;51.512;7.504;2023-07-16T06:44:32;7.50;;;3.90;;
5414;SDS011;2730;51.512;7.504;2023-07-16T06:46:59;3.50;;;3.20;;
5414;SDS011;2730;51.512;7.504;2023-07-16T06:49:26;7.07;;;3.43;;
5414;SDS011;2730;51.512;7.504;2023-07-16T06:51:53;4.63;;;3.67;;
5414;SDS011;2730;51.512;7.504;2023-07-16T06:54:20;6.10;;;2.83;;
5414;SDS011;2730;51.512;7.504;2023-07-16T06:56:48;5.57;;;3.43;;
5414;SDS011;2730;51.512;7.504;2023-07-16T06:59:14;6.50;;;4.00;;
5414;SDS011;2730;51.512;7.504;2023-07-16T07:01:41;4.80;;;3.73;;
5414;SDS011;2730;51.512;7.504;2023-07-16T07:04:08;6.37;;;3.60;;
5414;SDS011;2730;51.512;7.504;2023-07-16T07:06:35;8.93;;;4.20;;
5414;SDS011;2730;51.512;7.504;2023-07-16T07:09:01;4.53;;;2.43;;
5414;SDS011;2730;51.512;7.504;2023-07-16T07:11:28;5.65;;;3.63;;
5414;SDS011;2730;51.512;7.504;2023-07-16T07:13:56;4.10;;;3.40;;
5414;SDS011;2730;51.512;7.504;2023-07-16T07:16:23;5.80;;;3.60;;
5414;SDS011;2730;51.512;7.504;2023-07-16T07:18:50;4.03;;;3.40;;
5414;SDS011;2730;51.512;7.504;2023-07-16T07:21:17;7.10;;;3.27;;
5414;SDS011;2730;51.512;7.504;2023-07-16T07:23:43;6.87;;;3.50;;
5414;SDS011;2730;51.512;7.504;2023-07-16T07:26:10;6.93;;;3.63;;
5414;SDS011;2730;51.512;7.504;2023-07-16T07:28:37;8.13;;;3.60;;
5414;SDS011;2730;51.512;7.504;2023-07-16T07:31:05;5.43;;;3.03;;
5414;SDS011;2730;51.512;7.504;2023-07-16T07:33:32;9.03;;;2.93;;
5414;SDS011;2730;51.512;7.504;2023-07-16T07:35:59;3.67;;;3.13;;
5414;SDS011;2730;51.512;7.504;2023-07-16T07:38:26;6.97;;;3.17;;
5414;SDS011;2730;51.512;7.504;2023-07-16T07:40:53;5.03;;;3.20;;
5414;SDS011;2730;51.512;7.504;2023-07-16T07:43:20;6.03;;;3.33;;
5414;SDS011;2730;51.512;7.504;2023-07-16T07:45:47;4.97;;;3.47;;
5414;SDS011;2730;51.512;7.504;2023-07-16T07:48:15;7.60;;;3.23;;
5414;SDS011;2730;51.512;7.504;2023-07-16T07:50:41;5.90;;;3.40;;
5414;SDS011;2730;51.512;7.504;2023-07-16T07:53:08;6.90;;;3.50;;
5414;SDS011;2730;51.512;7.504;2023-07-16T07:55:35;8.97;;;3.00;;
5414;SDS011;2730;51.512;7.504;2023-07-16T07:58:02;5.63;;;3.70;;
5414;SDS011;2730;51.512;7.504;2023-07-16T08:00:28;3.73;;;2.93;;
5414;SDS011;2730;51.512;7.504;2023-07-16T08:02:55;9.30;;;3.77;;
5414;SDS011;2730;51.512;7.504;2023-07-16T08:05:23;8.23;;;3.40;;
5414;SDS011;2730;51.512;7.504;2023-07-16T08:07:50;8.80;;;3.60;;
5414;SDS011;2730;51.512;7.504;2023-07-16T08:10:18;4.67;;;3.53;;
5414;SDS011;2730;51.512;7.504;2023-07-16T08:12:45;3.60;;;2.83;;
5414;SDS011;2730;51.512;7.504;2023-07-16T08:15:12;3.83;;;3.43;;
5414;SDS011;2730;51.512;7.504;2023-07-16T08:17:40;10.27;;;3.57;;
5414;SDS011;2730;51.512;7.504;2023-07-16T08:20:07;4.33;;;3.20;;
5414;SDS011;2730;51.512;7.504;2023-07-16T08:22:36;3.73;;;3.13;;
5414;SDS011;2730;51.512;7.504;2023-07-16T08:25:04;10.20;;;3.23;;
5414;SDS011;2730;51.512;7.504;2023-07-16T08:27:32;10.00;;;4.13;;
5414;SDS011;2730;51.512;7.504;2023-07-16T08:30:00;8.10;;;4.03;;
5414;SDS011;2730;51.512;7.504;2023-07-16T08:32:27;4.87;;;3.77;;
5414;SDS011;2730;51.512;7.504;2023-07-16T08:34:54;5.30;;;3.57;;
5414;SDS011;2730;51.512;7.504;2023-07-16T08:37:21;4.67;;;3.10;;
5414;SDS011;2730;51.512;7.504;2023-07-16T08:39:51;5.47;;;3.27;;
5414;SDS011;2730;51.512;7.504;2023-07-16T08:42:18;6.80;;;3.47;;
5414;SDS011;2730;51.512;7.504;2023-07-16T08:44:46;3.47;;;3.17;;
5414;SDS011;2730;51.512;7.504;2023-07-16T08:47:14;3.27;;;3.00;;
5414;SDS011;2730;51.512;7.504;2023-07-16T08:49:41;5.20;;;3.37;;
5414;SDS011;2730;51.512;7.504;2023-07-16T08:52:14;9.73;;;4.13;;
5414;SDS011;2730;51.512;7.504;2023-07-16T08:54:43;4.43;;;3.20;;
5414;SDS011;2730;51.512;7.504;2023-07-16T08:57:11;5.03;;;3.43;;
5414;SDS011;2730;51.512;7.504;2023-07-16T08:59:39;3.63;;;3.30;;
5414;SDS011;2730;51.512;7.504;2023-07-16T09:02:06;5.83;;;3.53;;
5414;SDS011;2730;51.512;7.504;2023-07-16T09:04:33;6.37;;;3.00;;
5414;SDS011;2730;51.512;7.504;2023-07-16T09:07:00;5.90;;;3.87;;
5414;SDS011;2730;51.512;7.504;2023-07-16T09:09:27;4.20;;;3.17;;
5414;SDS011;2730;51.512;7.504;2023-07-16T09:11:54;4.60;;;3.20;;
5414;SDS011;2730;51.512;7.504;2023-07-16T09:14:23;4.50;;;3.63;;
5414;SDS011;2730;51.512;7.504;2023-07-16T09:16:50;4.57;;;3.27;;
5414;SDS011;2730;51.512;7.504;2023-07-16T09:19:17;3.60;;;3.17;;
5414;SDS011;2730;51.512;7.504;2023-07-16T09:21:46;4.50;;;3.30;;
5414;SDS011;2730;51.512;7.504;2023-07-16T09:24:13;4.40;;;3.20;;
5414;SDS011;2730;51.512;7.504;2023-07-16T09:26:47;4.43;;;3.40;;
5414;SDS011;2730;51.512;7.504;2023-07-16T09:29:14;4.27;;;3.30;;
5414;SDS011;2730;51.512;7.504;2023-07-16T09:31:52;5.70;;;3.50;;
5414;SDS011;2730;51.512;7.504;2023-07-16T09:34:19;3.87;;;2.90;;
5414;SDS011;2730;51.512;7.504;2023-07-16T09:36:46;5.80;;;3.37;;
5414;SDS011;2730;51.512;7.504;2023-07-16T09:39:14;5.03;;;3.47;;
5414;SDS011;2730;51.512;7.504;2023-07-16T09:41:42;3.17;;;2.83;;
5414;SDS011;2730;51.512;7.504;2023-07-16T09:44:10;3.97;;;3.57;;
5414;SDS011;2730;51.512;7.504;2023-07-16T09:46:38;8.47;;;3.50;;
5414;SDS011;2730;51.512;7.504;2023-07-16T09:49:06;5.90;;;3.20;;
5414;SDS011;2730;51.512;7.504;2023-07-16T09:51:33;6.33;;;3.47;;
5414;SDS011;2730;51.512;7.504;2023-07-16T09:54:02;2.87;;;2.67;;
5414;SDS011;2730;51.512;7.504;2023-07-16T09:56:32;5.93;;;3.07;;
5414;SDS011;2730;51.512;7.504;2023-07-16T09:59:02;4.60;;;2.70;;
5414;SDS011;2730;51.512;7.504;2023-07-16T10:01:33;8.87;;;3.80;;
5414;SDS011;2730;51.512;7.504;2023-07-16T10:04:11;4.00;;;3.03;;
5414;SDS011;2730;51.512;7.504;2023-07-16T10:06:47;2.77;;;2.60;;
5414;SDS011;2730;51.512;7.504;2023-07-16T10:09:34;3.73;;;2.77;;
5414;SDS011;2730;51.512;7.504;2023-07-16T10:12:11;5.43;;;2.67;;
5414;SDS011;2730;51.512;7.504;2023-07-16T10:14:39;6.43;;;3.10;;
5414;SDS011;2730;51.512;7.504;2023-07-16T10:17:07;2.90;;;2.43;;
5414;SDS011;2730;51.512;7.504;2023-07-16T10:19:46;4.83;;;2.70;;
5414;SDS011;2730;51.512;7.504;2023-07-16T10:22:14;2.83;;;2.57;;
5414;SDS011;2730;51.512;7.504;2023-07-16T10:24:41;5.23;;;3.10;;
5414;SDS011;2730;51.512;7.504;2023-07-16T10:27:08;3.87;;;2.40;;
5414;SDS011;2730;51.512;7.504;2023-07-16T10:29:35;2.60;;;2.40;;
5414;SDS011;2730;51.512;7.504;2023-07-16T10:32:03;5.07;;;2.87;;
5414;SDS011;2730;51.512;7.504;2023-07-16T10:34:32;3.60;;;2.40;;
5414;SDS011;2730;51.512;7.504;2023-07-16T10:37:03;6.30;;;2.80;;
5414;SDS011;2730;51.512;7.504;2023-07-16T10:39:32;4.60;;;3.23;;
5414;SDS011;2730;51.512;7.504;2023-07-16T10:41:59;3.00;;;2.47;;
5414;SDS011;2730;51.512;7.504;2023-07-16T10:44:28;4.03;;;2.90;;
5414;SDS011;2730;51.512;7.504;2023-07-16T10:46:53;3.10;;;2.80;;
5414;SDS011;2730;51.512;7.504;2023-07-16T10:49:26;7.27;;;3.13;;
5414;SDS011;2730;51.512;7.504;2023-07-16T10:51:54;3.00;;;2.73;;
5414;SDS011;2730;51.512;7.504;2023-07-16T10:54:22;7.93;;;3.87;;
5414;SDS011;2730;51.512;7.504;2023-07-16T10:56:49;3.30;;;2.80;;
5414;SDS011;2730;51.512;7.504;2023-07-16T10:59:17;3.57;;;3.27;;
5414;SDS011;2730;51.512;7.504;2023-07-16T11:01:44;2.93;;;2.73;;
5414;SDS011;2730;51.512;7.504;2023-07-16T11:04:11;2.90;;;2.70;;
5414;SDS011;2730;51.512;7.504;2023-07-16T11:06:37;4.17;;;3.07;;
5414;SDS011;2730;51.512;7.504;2023-07-16T11:09:07;3.10;;;2.50;;
5414;SDS011;2730;51.512;7.504;2023-07-16T11:11:35;5.47;;;2.43;;
5414;SDS011;2730;51.512;7.504;2023-07-16T11:14:03;4.23;;;2.60;;
5414;SDS011;2730;51.512;7.504;2023-07-16T11:16:32;4.87;;;2.60;;
5414;SDS011;2730;51.512;7.504;2023-07-16T11:19:00;5.00;;;2.50;;
5414;SDS011;2730;51.512;7.504;2023-07-16T11:21:29;3.13;;;2.70;;
5414;SDS011;2730;51.512;7.504;2023-07-16T11:24:06;2.40;;;2.17;;
5414;SDS011;2730;51.512;7.504;2023-07-16T11:26:35;3.00;;;2.40;;
5414;SDS011;2730;51.512;7.504;2023-07-16T11:29:11;7.60;;;2.57;;
5414;SDS011;2730;51.512;7.504;2023-07-16T11:31:39;3.20;;;2.23;;
5414;SDS011;2730;51.512;7.504;2023-07-16T11:34:06;7.63;;;2.53;;
5414;SDS011;2730;51.512;7.504;2023-07-16T11:36:33;4.03;;;1.70;;
5414;SDS011;2730;51.512;7.504;2023-07-16T11:39:02;5.13;;;2.33;;
5414;SDS011;2730;51.512;7.504;2023-07-16T11:41:29;4.23;;;2.30;;
5414;SDS011;2730;51.512;7.504;2023-07-16T11:44:00;3.60;;;2.17;;
5414;SDS011;2730;51.512;7.504;2023-07-16T11:46:30;2.63;;;2.43;;
5414;SDS011;2730;51.512;7.504;2023-07-16T11:48:57;6.63;;;2.57;;
5414;SDS011;2730;51.512;7.504;2023-07-16T11:51:24;6.87;;;3.27;;
5414;SDS011;2730;51.512;7.504;2023-07-16T11:53:51;7.90;;;2.30;;
5414;SDS011;2730;51.512;7.504;2023-07-16T11:56:18;3.40;;;2.73;;
5414;SDS011;2730;51.512;7.504;2023-07-16T11:58:45;3.60;;;2.60;;
5414;SDS011;2730;51.512;7.504;2023-07-16T12:01:13;4.27;;;2.90;;
5414;SDS011;2730;51.512;7.504;2023-07-16T12:03:40;7.70;;;3.17;;
5414;SDS011;2730;51.512;7.504;2023-07-16T12:06:07;2.73;;;2.50;;
5414;SDS011;2730;51.512;7.504;2023-07-16T12:08:34;5.00;;;2.60;;
5414;SDS011;2730;51.512;7.504;2023-07-16T12:11:01;3.57;;;2.40;;
5414;SDS011;2730;51.512;7.504;2023-07-16T12:13:28;7.03;;;2.60;;
5414;SDS011;2730;51.512;7.504;2023-07-16T12:15:55;7.90;;;2.57;;
5414;SDS011;2730;51.512;7.504;2023-07-16T12:18:23;4.80;;;2.80;;
5414;SDS011;2730;51.512;7.504;2023-07-16T12:20:49;3.40;;;2.73;;
5414;SDS011;2730;51.512;7.504;2023-07-16T12:23:16;5.10;;;2.70;;
5414;SDS011;2730;51.512;7.504;2023-07-16T12:25:43;3.60;;;2.50;;
5414;SDS011;2730;51.512;7.504;2023-07-16T12:28:10;3.90;;;2.47;;
5414;SDS011;2730;51.512;7.504;2023-07-16T12:30:37;3.03;;;2.63;;
5414;SDS011;2730;51.512;7.504;2023-07-16T12:33:04;2.60;;;2.40;;
5414;SDS011;2730;51.512;7.504;2023-07-16T12:35:32;3.03;;;2.20;;
5414;SDS011;2730;51.512;7.504;2023-07-16T12:37:58;4.27;;;2.43;;
5414;SDS011;2730;51.512;7.504;2023-07-16T12:40:25;4.30;;;2.30;;
5414;SDS011;2730;51.512;7.504;2023-07-16T12:42:54;3.80;;;2.60;;
5414;SDS011;2730;51.512;7.504;2023-07-16T12:45:21;4.60;;;2.60;;
5414;SDS011;2730;51.512;7.504;2023-07-16T12:47:48;6.40;;;2.63;;
5414;SDS011;2730;51.512;7.504;2023-07-16T12:50:15;3.20;;;2.10;;
5414;SDS011;2730;51.512;7.504;2023-07-16T12:52:43;3.53;;;2.80;;
5414;SDS011;2730;51.512;7.504;2023-07-16T12:55:10;3.70;;;2.40;;
5414;SDS011;2730;51.512;7.504;2023-07-16T12:57:38;3.97;;;2.73;;
5414;SDS011;2730;51.512;7.504;2023-07-16T13:00:05;9.13;;;2.77;;
5414;SDS011;2730;51.512;7.504;2023-07-16T13:02:34;9.83;;;3.10;;
5414;SDS011;2730;51.512;7.504;2023-07-16T13:05:02;5.53;;;2.70;;
5414;SDS011;2730;51.512;7.504;2023-07-16T13:07:29;6.63;;;2.83;;
5414;SDS011;2730;51.512;7.504;2023-07-16T13:09:58;4.37;;;2.97;;
5414;SDS011;2730;51.512;7.504;2023-07-16T13:12:24;3.90;;;2.47;;
5414;SDS011;2730;51.512;7.504;2023-07-16T13:14:51;7.03;;;2.90;;
5414;SDS011;2730;51.512;7.504;2023-07-16T13:17:18;3.03;;;2.73;;
5414;SDS011;2730;51.512;7.504;2023-07-16T13:19:45;2.77;;;2.57;;
5414;SDS011;2730;51.512;7.504;2023-07-16T13:22:12;3.60;;;2.97;;
5414;SDS011;2730;51.512;7.504;2023-07-16T13:24:40;4.50;;;2.77;;
5414;SDS011;2730;51.512;7.504;2023-07-16T13:27:09;9.33;;;2.73;;
5414;SDS011;2730;51.512;7.504;2023-07-16T13:29:36;2.90;;;2.50;;
5414;SDS011;2730;51.512;7.504;2023-07-16T13:32:03;3.03;;;2.50;;
5414;SDS011;2730;51.512;7.504;2023-07-16T13:34:30;5.73;;;3.10;;
5414;SDS011;2730;51.512;7.504;2023-07-16T13:36:57;4.07;;;2.37;;
5414;SDS011;2730;51.512;7.504;2023-07-16T13:39:24;3.40;;;2.83;;
5414;SDS011;2730;51.512;7.504;2023-07-16T13:41:50;2.20;;;2.10;;
5414;SDS011;2730;51.512;7.504;2023-07-16T13:44:19;4.73;;;2.90;;
5414;SDS011;2730;51.512;7.504;2023-07-16T13:46:45;3.67;;;2.27;;
5414;SDS011;2730;51.512;7.504;2023-07-16T13:49:12;2.90;;;2.60;;
5414;SDS011;2730;51.512;7.504;2023-07-16T13:51:39;2.97;;;2.63;;
5414;SDS011;2730;51.512;7.504;2023-07-16T13:54:06;3.73;;;2.70;;
5414;SDS011;2730;51.512;7.504;2023-07-16T13:56:33;10.30;;;3.50;;
5414;SDS011;2730;51.512;7.504;2023-07-16T13:59:00;4.60;;;3.00;;
5414;SDS011;2730;51.512;7.504;2023-07-16T14:01:28;3.10;;;2.67;;
5414;SDS011;2730;51.512;7.504;2023-07-16T14:03:54;3.53;;;2.63;;
5414;SDS011;2730;51.512;7.504;2023-07-16T14:06:21;3.63;;;2.80;;
5414;SDS011;2730;51.512;7.504;2023-07-16T14:08:48;4.53;;;3.00;;
5414;SDS011;2730;51.512;7.504;2023-07-16T14:11:15;3.40;;;3.10;;
5414;SDS011;2730;51.512;7.504;2023-07-16T14:13:43;7.50;;;3.00;;
5414;SDS011;2730;51.512;7.504;2023-07-16T14:16:10;3.00;;;2.60;;
5414;SDS011;2730;51.512;7.504;2023-07-16T14:18:38;4.97;;;2.80;;
5414;SDS011;2730;51.512;7.504;2023-07-16T14:21:05;2.80;;;2.30;;
5414;SDS011;2730;51.512;7.504;2023-07-16T14:23:32;3.07;;;2.60;;
5414;SDS011;2730;51.512;7.504;2023-07-16T14:25:59;3.20;;;2.73;;
5414;SDS011;2730;51.512;7.504;2023-07-16T14:28:27;3.57;;;3.07;;
5414;SDS011;2730;51.512;7.504;2023-07-16T14:30:54;2.60;;;2.40;;
5414;SDS011;2730;51.512;7.504;2023-07-16T14:33:21;3.37;;;2.70;;
5414;SDS011;2730;51.512;7.504;2023-07-16T14:35:49;3.70;;;2.67;;
5414;SDS011;2730;51.512;7.504;2023-07-16T14:38:16;2.60;;;2.37;;
5414;SDS011;2730;51.512;7.504;2023-07-16T14:40:42;3.07;;;2.70;;
5414;SDS011;2730;51.512;7.504;2023-07-16T14:43:09;4.33;;;2.40;;
5414;SDS011;2730;51.512;7.504;2023-07-16T14:45:36;3.87;;;2.27;;
5414;SDS011;2730;51.512;7.504;2023-07-16T14:48:03;2.93;;;2.30;;
5414;SDS011;2730;51.512;7.504;2023-07-16T14:50:31;6.13;;;3.00;;
5414;SDS011;2730;51.512;7.504;2023-07-16T14:52:59;2.97;;;2.67;;
5414;SDS011;2730;51.512;7.504;2023-07-16T14:55:26;5.77;;;2.83;;
5414;SDS011;2730;51.512;7.504;2023-07-16T14:57:53;5.23;;;2.40;;
5414;SDS011;2730;51.512;7.504;2023-07-16T15:00:20;3.63;;;2.53;;
5414;SDS011;2730;51.512;7.504;2023-07-16T15:02:47;7.80;;;2.20;;
5414;SDS011;2730;51.512;7.504;2023-07-16T15:05:14;3.87;;;2.47;;
5414;SDS011;2730;51.512;7.504;2023-07-16T15:07:41;5.03;;;2.70;;
5414;SDS011;2730;51.512;7.504;2023-07-16T15:10:09;3.30;;;2.90;;
5414;SDS011;2730;51.512;7.504;2023-07-16T15:12:36;6.03;;;2.63;;
5414;SDS011;2730;51.512;7.504;2023-07-16T15:15:03;6.13;;;2.87;;
5414;SDS011;2730;51.512;7.504;2023-07-16T15:17:31;6.87;;;3.03;;